createdAt,value
2022-09-23T00:00:00.925Z,18.82
2022-09-23T00:01:12.029Z,18.94
2022-09-23T00:02:19.602Z,19.13
2022-09-23T00:03:27.241Z,18.95
2022-09-23T00:04:34.714Z,18.89
2022-09-23T00:05:42.344Z,19.00
2022-09-23T00:06:53.298Z,19.51
2022-09-23T00:08:03.673Z,19.56
2022-09-23T00:09:15.493Z,19.68
2022-09-23T00:10:24.097Z,19.85
2022-09-23T00:11:31.947Z,19.94
2022-09-23T00:12:39.352Z,19.85
2022-09-23T00:13:49.768Z,19.87
2022-09-23T00:14:57.195Z,19.97
2022-09-23T00:16:06.329Z,20.37
2022-09-23T00:17:14.032Z,20.39
2022-09-23T00:18:22.534Z,20.45
2022-09-23T00:19:30.783Z,20.63
2022-09-23T00:20:38.424Z,20.59
2022-09-23T00:21:48.002Z,20.64
2022-09-23T00:22:55.603Z,20.33
2022-09-23T00:24:03.750Z,20.16
2022-09-23T00:25:12.096Z,20.12
2022-09-23T00:26:20.226Z,20.16
2022-09-23T00:27:27.964Z,20.19
2022-09-23T00:28:35.656Z,20.37
2022-09-23T00:29:47.580Z,20.67
2022-09-23T00:30:55.079Z,20.59
2022-09-23T00:32:02.574Z,20.63
2022-09-23T00:33:11.892Z,20.82
2022-09-23T00:34:19.834Z,20.69
2022-09-23T00:35:27.243Z,20.67
2022-09-23T00:36:34.514Z,20.66
2022-09-23T00:37:41.894Z,20.49
2022-09-23T00:38:50.931Z,20.60
2022-09-23T00:39:58.527Z,20.59
2022-09-23T00:41:05.843Z,20.91
2022-09-23T00:42:17.596Z,21.00
2022-09-23T00:43:47.290Z,21.16
2022-09-23T00:45:00.579Z,21.27
2022-09-23T00:46:11.737Z,20.98
2022-09-23T00:47:24.226Z,20.60
2022-09-23T00:48:31.633Z,20.82
2022-09-23T00:49:39.009Z,21.12
2022-09-23T00:50:47.397Z,21.04
2022-09-23T00:52:02.536Z,21.02
2022-09-23T00:53:11.009Z,20.85
2022-09-23T00:54:18.241Z,20.55
2022-09-23T00:55:32.866Z,20.67
2022-09-23T00:56:41.960Z,20.50
2022-09-23T00:57:50.103Z,20.39
2022-09-23T00:58:57.271Z,20.48
2022-09-23T01:00:05.377Z,20.65
2022-09-23T01:01:15.129Z,20.59
2022-09-23T01:02:25.776Z,20.68
2022-09-23T01:03:33.319Z,20.83
2022-09-23T01:04:40.659Z,20.76
2022-09-23T01:05:47.924Z,20.75
2022-09-23T01:06:55.070Z,20.94
2022-09-23T01:08:03.008Z,21.03
2022-09-23T01:09:10.289Z,21.15
2022-09-23T01:10:17.656Z,21.06
2022-09-23T01:11:28.404Z,21.33
2022-09-23T01:13:01.396Z,21.40
2022-09-23T01:14:52.927Z,21.78
2022-09-23T01:16:10.524Z,21.92
2022-09-23T01:17:34.316Z,22.30
2022-09-23T01:19:05.256Z,22.63
2022-09-23T01:20:27.233Z,22.85
2022-09-23T01:21:46.981Z,23.16
2022-09-23T01:23:13.700Z,23.27
2022-09-23T01:24:33.592Z,23.48
2022-09-23T01:26:05.576Z,23.83
2022-09-23T01:27:28.773Z,24.13
2022-09-23T01:28:45.360Z,24.48
2022-09-23T01:30:08.240Z,24.58
2022-09-23T01:31:20.170Z,24.83
2022-09-23T01:32:37.068Z,25.07
2022-09-23T01:34:07.650Z,25.24
2022-09-23T01:35:31.887Z,25.13
2022-09-23T01:37:02.775Z,25.60
2022-09-23T01:38:42.066Z,25.49
2022-09-23T01:40:17.718Z,25.88
2022-09-23T01:41:47.438Z,26.11
2022-09-23T01:43:38.675Z,26.11
2022-09-23T01:44:49.606Z,26.41
2022-09-23T01:45:57.917Z,26.72
2022-09-23T01:47:12.321Z,26.57
2022-09-23T01:49:13.036Z,26.82
2022-09-23T01:50:52.869Z,27.30
2022-09-23T01:52:12.175Z,27.46
2022-09-23T01:53:38.686Z,27.50
2022-09-23T01:55:13.296Z,27.92
2022-09-23T01:56:31.263Z,28.28
2022-09-23T01:57:50.198Z,28.54
2022-09-23T01:59:10.765Z,28.62
2022-09-23T02:00:19.271Z,28.72
2022-09-23T02:01:40.794Z,28.97
2022-09-23T02:02:54.005Z,29.07
2022-09-23T02:04:10.170Z,29.27
2022-09-23T02:05:23.703Z,29.75
2022-09-23T02:06:49.430Z,29.92
2022-09-23T02:08:03.321Z,30.05
2022-09-23T02:09:22.031Z,30.39
2022-09-23T02:10:38.865Z,30.58
2022-09-23T02:11:47.639Z,31.03
2022-09-23T02:12:58.809Z,31.41
2022-09-23T02:14:31.353Z,31.65
2022-09-23T02:15:41.826Z,31.64
2022-09-23T02:16:53.627Z,32.10
2022-09-23T02:18:24.257Z,32.40
2022-09-23T02:20:04.181Z,32.68
2022-09-23T02:21:11.253Z,32.84
2022-09-23T02:22:37.488Z,33.30
2022-09-23T02:23:47.975Z,33.49
2022-09-23T02:24:55.958Z,33.77
2022-09-23T02:26:21.844Z,33.68
2022-09-23T02:27:29.628Z,33.37
2022-09-23T02:28:52.810Z,33.59
2022-09-23T02:30:36.339Z,34.32
2022-09-23T02:31:51.207Z,34.45
2022-09-23T02:33:05.954Z,35.13
2022-09-23T02:34:32.750Z,35.73
2022-09-23T02:36:22.135Z,36.51
2022-09-23T02:37:48.966Z,37.00
2022-09-23T02:38:58.776Z,36.68
2022-09-23T02:40:32.589Z,36.59
2022-09-23T02:41:51.926Z,37.21
2022-09-23T02:43:21.611Z,37.48
2022-09-23T02:44:30.811Z,37.67
2022-09-23T02:45:42.367Z,37.52
2022-09-23T02:46:50.046Z,37.97
2022-09-23T02:48:01.857Z,38.14
2022-09-23T02:49:16.251Z,37.85
2022-09-23T02:50:24.349Z,37.50
2022-09-23T02:51:40.464Z,37.58
2022-09-23T02:52:49.912Z,37.88
2022-09-23T02:53:59.461Z,37.90
2022-09-23T02:55:08.280Z,38.23
2022-09-23T02:56:20.994Z,38.26
2022-09-23T02:57:28.666Z,38.24
2022-09-23T02:58:36.694Z,38.22
2022-09-23T02:59:44.079Z,38.46
2022-09-23T03:01:10.319Z,38.43
2022-09-23T03:02:18.757Z,38.85
2022-09-23T03:03:35.279Z,38.91
2022-09-23T03:05:17.206Z,39.10
2022-09-23T03:06:34.618Z,39.80
2022-09-23T03:08:03.834Z,39.79
2022-09-23T03:09:39.872Z,40.17
2022-09-23T03:10:58.911Z,40.66
2022-09-23T03:12:42.436Z,40.56
2022-09-23T03:14:06.503Z,40.36
2022-09-23T03:15:29.597Z,40.21
2022-09-23T03:16:55.094Z,40.31
2022-09-23T03:18:10.534Z,40.59
2022-09-23T03:19:37.168Z,40.56
2022-09-23T03:20:51.884Z,40.92
2022-09-23T03:22:16.598Z,41.32
2022-09-23T03:23:26.447Z,41.21
2022-09-23T03:24:33.990Z,40.86
2022-09-23T03:25:42.146Z,40.85
2022-09-23T03:26:49.663Z,41.05
2022-09-23T03:28:02.042Z,41.04
2022-09-23T03:29:13.809Z,41.37
2022-09-23T03:30:23.300Z,41.14
2022-09-23T03:31:31.538Z,41.30
2022-09-23T03:32:39.820Z,41.72
2022-09-23T03:33:54.409Z,42.01
2022-09-23T03:35:03.868Z,41.68
2022-09-23T03:36:30.803Z,41.51
2022-09-23T03:38:04.217Z,41.66
2022-09-23T03:39:14.435Z,41.97
2022-09-23T03:40:28.452Z,42.22
2022-09-23T03:41:42.098Z,42.13
2022-09-23T03:42:52.616Z,42.22
2022-09-23T03:44:00.252Z,42.31
2022-09-23T03:45:10.863Z,42.48
2022-09-23T03:46:21.169Z,42.27
2022-09-23T03:47:30.995Z,42.41
2022-09-23T03:48:40.845Z,42.61
2022-09-23T03:49:50.494Z,42.70
2022-09-23T03:50:57.947Z,42.42
2022-09-23T03:52:05.577Z,42.31
2022-09-23T03:53:15.961Z,42.80
2022-09-23T03:54:23.480Z,42.96
2022-09-23T03:55:30.965Z,43.17
2022-09-23T03:56:38.958Z,43.37
2022-09-23T03:57:46.632Z,43.30
2022-09-23T03:58:55.325Z,43.56
2022-09-23T04:00:02.718Z,43.79
2022-09-23T04:01:18.970Z,43.75
2022-09-23T04:02:28.610Z,43.61
2022-09-23T04:03:37.939Z,43.58
2022-09-23T04:04:45.928Z,43.54
2022-09-23T04:05:53.639Z,43.58
2022-09-23T04:07:01.121Z,43.59
2022-09-23T04:08:08.591Z,43.51
2022-09-23T04:09:15.877Z,43.53
2022-09-23T04:10:23.130Z,43.42
2022-09-23T04:11:30.842Z,43.42
2022-09-23T04:12:38.316Z,43.53
2022-09-23T04:13:45.577Z,43.87
2022-09-23T04:14:52.728Z,43.81
2022-09-23T04:16:00.062Z,44.44
2022-09-23T04:17:07.363Z,44.67
2022-09-23T04:18:15.022Z,44.62
2022-09-23T04:19:22.400Z,44.70
2022-09-23T04:20:30.274Z,44.85
2022-09-23T04:21:37.858Z,45.05
2022-09-23T04:22:45.335Z,45.12
2022-09-23T04:23:52.895Z,44.93
2022-09-23T04:25:03.571Z,45.11
2022-09-23T04:26:11.239Z,45.33
2022-09-23T04:27:19.232Z,45.40
2022-09-23T04:28:26.712Z,45.40
2022-09-23T04:29:34.068Z,45.27
2022-09-23T04:30:45.188Z,45.03
2022-09-23T04:31:52.702Z,44.97
2022-09-23T04:33:00.225Z,44.79
2022-09-23T04:34:07.302Z,44.84
2022-09-23T04:35:14.932Z,44.91
2022-09-23T04:36:22.621Z,45.03
2022-09-23T04:37:30.691Z,45.04
2022-09-23T04:38:37.867Z,44.87
2022-09-23T04:39:45.442Z,44.84
2022-09-23T04:40:52.859Z,44.87
2022-09-23T04:42:01.188Z,44.97
2022-09-23T04:43:12.861Z,45.35
2022-09-23T04:44:22.624Z,45.81
2022-09-23T04:45:31.538Z,46.38
2022-09-23T04:46:40.585Z,46.50
2022-09-23T04:47:48.585Z,46.25
2022-09-23T04:48:55.954Z,45.92
2022-09-23T04:50:03.268Z,46.26
2022-09-23T04:51:18.348Z,46.71
2022-09-23T04:52:25.713Z,46.95
2022-09-23T04:53:33.263Z,46.90
2022-09-23T04:54:40.846Z,46.92
2022-09-23T04:55:53.838Z,47.35
2022-09-23T04:57:03.040Z,47.49
2022-09-23T04:58:11.250Z,47.52
2022-09-23T04:59:18.694Z,47.47
2022-09-23T05:00:27.981Z,47.68
2022-09-23T05:01:36.645Z,47.77
2022-09-23T05:02:47.280Z,48.03
2022-09-23T05:03:55.557Z,48.20
2022-09-23T05:05:02.673Z,48.16
2022-09-23T05:06:10.300Z,48.06
2022-09-23T05:07:20.391Z,48.18
2022-09-23T05:08:27.961Z,48.38
2022-09-23T05:09:35.171Z,48.63
2022-09-23T05:10:43.091Z,48.81
2022-09-23T05:11:50.163Z,49.01
2022-09-23T05:12:59.042Z,49.06
2022-09-23T05:14:06.645Z,49.01
2022-09-23T05:15:16.135Z,48.76
2022-09-23T05:16:27.059Z,48.93
2022-09-23T05:17:35.020Z,49.14
2022-09-23T05:18:44.109Z,49.29
2022-09-23T05:19:51.746Z,49.46
2022-09-23T05:20:58.841Z,49.39
2022-09-23T05:22:07.457Z,49.27
2022-09-23T05:23:14.805Z,49.13
2022-09-23T05:24:22.668Z,49.02
2022-09-23T05:25:29.947Z,49.18
2022-09-23T05:26:37.135Z,49.59
2022-09-23T05:27:44.410Z,50.07
2022-09-23T05:28:52.152Z,50.51
2022-09-23T05:29:59.875Z,50.73
2022-09-23T05:31:08.251Z,50.97
2022-09-23T05:32:16.895Z,50.95
2022-09-23T05:33:24.479Z,50.70
2022-09-23T05:34:32.049Z,50.66
2022-09-23T05:35:39.492Z,50.66
2022-09-23T05:36:47.159Z,50.87
2022-09-23T05:37:54.251Z,51.28
2022-09-23T05:39:01.431Z,51.55
2022-09-23T05:40:09.182Z,51.63
2022-09-23T05:41:16.598Z,51.56
2022-09-23T05:42:26.994Z,51.81
2022-09-23T05:43:34.316Z,52.06
2022-09-23T05:44:41.649Z,52.05
2022-09-23T05:45:48.930Z,52.00
2022-09-23T05:46:56.664Z,51.84
2022-09-23T05:48:04.138Z,51.75
2022-09-23T05:49:11.554Z,51.76
2022-09-23T05:50:18.891Z,51.62
2022-09-23T05:51:30.741Z,52.18
2022-09-23T05:52:38.900Z,52.95
2022-09-23T05:53:48.967Z,53.11
2022-09-23T05:54:56.294Z,53.58
2022-09-23T05:57:11.829Z,53.88
2022-09-23T05:58:19.015Z,53.96
2022-09-23T05:59:26.380Z,53.84
2022-09-23T06:00:34.374Z,53.70
2022-09-23T06:01:42.360Z,53.52
2022-09-23T06:02:50.672Z,53.71
2022-09-23T06:03:58.686Z,53.93
2022-09-23T06:05:05.883Z,53.75
2022-09-23T06:06:15.872Z,53.71
2022-09-23T06:07:23.403Z,53.63
2022-09-23T06:08:30.665Z,53.83
2022-09-23T06:09:38.351Z,53.94
2022-09-23T06:10:47.153Z,53.80
2022-09-23T06:11:57.468Z,53.71
2022-09-23T06:13:04.704Z,53.65
2022-09-23T06:14:14.145Z,54.23
2022-09-23T06:15:21.450Z,54.83
2022-09-23T06:16:28.840Z,54.85
2022-09-23T06:17:36.224Z,54.74
2022-09-23T06:18:44.271Z,54.41
2022-09-23T06:19:51.538Z,54.27
2022-09-23T06:21:01.751Z,54.29
2022-09-23T06:22:09.073Z,54.32
2022-09-23T06:23:16.743Z,54.17
2022-09-23T06:24:28.523Z,54.17
2022-09-23T06:25:42.230Z,54.36
2022-09-23T06:26:50.422Z,54.62
2022-09-23T06:27:58.502Z,54.76
2022-09-23T06:29:11.224Z,54.60
2022-09-23T06:30:24.874Z,54.54
2022-09-23T06:31:32.545Z,54.87
2022-09-23T06:32:40.482Z,54.68
2022-09-23T06:33:48.657Z,54.51
2022-09-23T06:34:56.576Z,54.45
2022-09-23T06:36:05.618Z,54.38
2022-09-23T06:37:19.910Z,54.51
2022-09-23T06:38:28.518Z,54.42
2022-09-23T06:39:36.590Z,54.43
2022-09-23T06:40:45.570Z,54.81
2022-09-23T06:41:53.015Z,54.91
2022-09-23T06:43:02.001Z,54.67
2022-09-23T06:44:09.527Z,54.42
2022-09-23T06:45:18.125Z,54.58
2022-09-23T06:46:26.076Z,54.80
2022-09-23T06:47:33.966Z,54.94
2022-09-23T06:48:45.924Z,55.18
2022-09-23T06:49:54.055Z,55.01
2022-09-23T06:51:03.619Z,55.34
2022-09-23T06:52:11.387Z,55.46
2022-09-23T06:53:18.938Z,55.70
2022-09-23T06:54:29.718Z,55.91
2022-09-23T06:55:37.376Z,56.00
2022-09-23T06:56:49.015Z,55.79
2022-09-23T06:57:58.059Z,55.81
2022-09-23T06:59:05.088Z,55.95
2022-09-23T07:00:13.286Z,55.96
2022-09-23T07:01:21.685Z,55.97
2022-09-23T07:02:29.856Z,55.87
2022-09-23T07:03:37.812Z,56.03
2022-09-23T07:04:45.505Z,56.32
2022-09-23T07:05:56.462Z,56.31
2022-09-23T07:07:04.144Z,56.50
2022-09-23T07:08:11.796Z,56.70
2022-09-23T07:09:19.358Z,56.65
2022-09-23T07:10:28.590Z,56.76
2022-09-23T07:11:36.309Z,56.91
2022-09-23T07:12:44.480Z,57.03
2022-09-23T07:13:52.127Z,57.32
2022-09-23T07:14:59.289Z,58.12
2022-09-23T07:16:06.778Z,58.72
2022-09-23T07:17:14.354Z,59.54
2022-09-23T07:18:22.132Z,59.77
2022-09-23T07:19:29.470Z,59.54
2022-09-23T07:20:37.652Z,59.43
2022-09-23T07:21:45.089Z,59.15
2022-09-23T07:22:55.356Z,58.93
2022-09-23T07:24:02.676Z,58.67
2022-09-23T07:25:11.109Z,58.41
2022-09-23T07:26:21.370Z,58.43
2022-09-23T07:27:29.156Z,58.50
2022-09-23T07:28:38.198Z,58.54
2022-09-23T07:29:48.801Z,58.27
2022-09-23T07:31:00.382Z,58.17
2022-09-23T07:32:13.635Z,58.09
2022-09-23T07:33:31.584Z,58.11
2022-09-23T07:34:40.024Z,57.96
2022-09-23T07:35:47.466Z,57.82
2022-09-23T07:36:56.195Z,57.93
2022-09-23T07:38:04.004Z,58.33
2022-09-23T07:39:12.725Z,58.62
2022-09-23T07:40:21.133Z,58.57
2022-09-23T07:41:30.211Z,58.72
2022-09-23T07:42:37.454Z,58.80
2022-09-23T07:43:45.555Z,58.76
2022-09-23T07:44:53.865Z,58.61
2022-09-23T07:46:03.988Z,58.77
2022-09-23T07:47:11.600Z,59.00
2022-09-23T07:48:22.019Z,58.90
2022-09-23T07:49:29.462Z,58.93
2022-09-23T07:50:36.674Z,58.96
2022-09-23T07:51:47.221Z,58.97
2022-09-23T07:52:54.425Z,59.16
2022-09-23T07:54:01.755Z,59.06
2022-09-23T07:55:09.202Z,58.82
2022-09-23T07:56:17.128Z,58.75
2022-09-23T07:57:26.615Z,59.03
2022-09-23T07:58:36.183Z,58.95
2022-09-23T07:59:45.914Z,58.73
2022-09-23T08:00:56.059Z,58.77
2022-09-23T08:02:03.893Z,58.88
2022-09-23T08:03:12.995Z,58.90
2022-09-23T08:04:26.733Z,58.62
2022-09-23T08:05:35.982Z,58.99
2022-09-23T08:06:46.464Z,59.32
2022-09-23T08:07:54.817Z,59.44
2022-09-23T08:09:03.976Z,59.64
2022-09-23T08:10:13.253Z,59.92
2022-09-23T08:11:21.639Z,60.07
2022-09-23T08:12:31.082Z,60.23
2022-09-23T08:13:39.945Z,60.64
2022-09-23T08:14:49.054Z,60.79
2022-09-23T08:15:57.972Z,60.97
2022-09-23T08:17:06.575Z,61.10
2022-09-23T08:18:14.557Z,61.15
2022-09-23T08:19:22.674Z,61.22
2022-09-23T08:20:49.432Z,61.11
2022-09-23T08:21:57.043Z,61.17
2022-09-23T08:23:04.681Z,61.60
2022-09-23T08:24:15.442Z,61.64
2022-09-23T08:25:24.147Z,61.27
2022-09-23T08:26:32.787Z,60.93
2022-09-23T08:27:41.003Z,61.00
2022-09-23T08:28:49.624Z,61.11
2022-09-23T08:29:57.003Z,60.97
2022-09-23T08:31:05.438Z,61.03
2022-09-23T08:32:13.106Z,61.17
2022-09-23T08:33:23.741Z,61.11
2022-09-23T08:34:31.671Z,61.50
2022-09-23T08:35:39.565Z,62.30
2022-09-23T08:36:47.567Z,63.21
2022-09-23T08:37:56.572Z,63.32
2022-09-23T08:39:03.809Z,63.49
2022-09-23T08:40:11.598Z,63.52
2022-09-23T08:41:31.997Z,63.44
2022-09-23T08:42:39.814Z,63.25
2022-09-23T08:43:52.270Z,63.26
2022-09-23T08:45:04.098Z,62.98
2022-09-23T08:46:13.691Z,62.93
2022-09-23T08:47:34.810Z,62.71
2022-09-23T08:48:46.484Z,62.53
2022-09-23T08:50:05.265Z,62.67
2022-09-23T08:51:17.601Z,62.80
2022-09-23T08:53:06.727Z,62.62
2022-09-23T08:54:14.630Z,62.52
2022-09-23T08:55:39.755Z,62.22
2022-09-23T08:56:48.260Z,61.95
2022-09-23T08:58:25.405Z,61.78
2022-09-23T08:59:39.821Z,61.39
2022-09-23T09:00:49.969Z,61.04
2022-09-23T09:02:07.995Z,60.78
2022-09-23T09:03:25.835Z,60.79
2022-09-23T09:04:44.125Z,60.77
2022-09-23T09:05:54.385Z,61.03
2022-09-23T09:08:43.290Z,60.92
2022-09-23T09:09:54.804Z,60.89
2022-09-23T09:11:02.259Z,60.86
2022-09-23T09:12:23.724Z,60.91
2022-09-23T09:13:36.395Z,60.74
2022-09-23T09:15:14.469Z,60.89
2022-09-23T09:16:48.280Z,61.06
2022-09-23T09:18:04.111Z,61.15
2022-09-23T09:19:35.293Z,60.91
2022-09-23T09:21:00.383Z,60.80
2022-09-23T09:22:08.317Z,61.20
2022-09-23T09:23:21.732Z,61.64
2022-09-23T09:24:36.285Z,61.89
2022-09-23T09:25:47.992Z,62.19
2022-09-23T09:26:55.816Z,62.00
2022-09-23T09:28:03.521Z,61.97
2022-09-23T09:29:34.438Z,61.88
2022-09-23T09:30:48.218Z,62.03
2022-09-23T09:31:58.861Z,62.08
2022-09-23T09:33:07.991Z,61.99
2022-09-23T09:34:42.755Z,61.64
2022-09-23T09:36:10.545Z,61.21
2022-09-23T09:37:35.007Z,60.89
2022-09-23T09:38:42.496Z,60.61
2022-09-23T09:39:50.649Z,60.40
2022-09-23T09:40:57.569Z,60.42
2022-09-23T09:42:05.595Z,60.31
2022-09-23T09:43:13.227Z,60.41
2022-09-23T09:45:00.956Z,60.40
2022-09-23T09:46:30.544Z,60.66
2022-09-23T09:47:59.443Z,60.58
2022-09-23T09:49:31.306Z,60.39
2022-09-23T09:50:54.720Z,60.49
2022-09-23T09:52:27.337Z,60.57
2022-09-23T09:53:37.068Z,60.68
2022-09-23T09:54:45.662Z,61.00
2022-09-23T09:56:32.731Z,61.21
2022-09-23T09:58:03.260Z,61.28
2022-09-23T09:59:17.240Z,61.28
2022-09-23T10:00:26.875Z,61.24
2022-09-23T10:01:35.970Z,61.63
2022-09-23T10:02:43.558Z,61.88
2022-09-23T10:03:54.354Z,61.75
2022-09-23T10:05:08.294Z,61.74
2022-09-23T10:06:22.130Z,61.74
2022-09-23T10:07:32.023Z,61.70
2022-09-23T10:08:40.381Z,61.88
2022-09-23T10:09:52.284Z,61.76
2022-09-23T10:11:16.733Z,61.67
2022-09-23T10:12:25.956Z,61.41
2022-09-23T10:13:33.833Z,61.36
2022-09-23T10:14:41.777Z,61.30
2022-09-23T10:15:49.594Z,61.24
2022-09-23T10:17:06.941Z,61.41
2022-09-23T10:18:39.549Z,61.53
2022-09-23T10:19:49.733Z,61.37
2022-09-23T10:21:10.113Z,61.51
2022-09-23T10:22:27.759Z,61.66
2022-09-23T10:23:35.819Z,61.79
2022-09-23T10:24:43.626Z,61.73
2022-09-23T10:26:01.831Z,61.60
2022-09-23T10:27:10.653Z,61.50
2022-09-23T10:28:44.538Z,61.63
2022-09-23T10:29:52.505Z,61.72
2022-09-23T10:31:30.550Z,61.76
2022-09-23T10:32:46.357Z,62.11
2022-09-23T10:34:02.335Z,62.49
2022-09-23T10:35:15.278Z,62.91
2022-09-23T10:36:22.944Z,63.29
2022-09-23T10:37:43.451Z,63.30
2022-09-23T10:38:52.340Z,63.34
2022-09-23T10:40:18.198Z,63.35
2022-09-23T10:41:57.990Z,63.26
2022-09-23T10:43:32.783Z,63.19
2022-09-23T10:45:28.522Z,63.08
2022-09-23T10:46:41.434Z,63.18
2022-09-23T10:47:59.542Z,63.21
2022-09-23T10:49:14.047Z,63.13
2022-09-23T10:50:40.119Z,63.08
2022-09-23T10:52:12.494Z,63.20
2022-09-23T10:53:27.985Z,63.19
2022-09-23T10:54:44.927Z,63.03
2022-09-23T10:55:55.678Z,63.08
2022-09-23T10:57:44.500Z,63.35
2022-09-23T10:59:16.624Z,63.48
2022-09-23T11:01:00.896Z,63.56
2022-09-23T11:02:25.365Z,63.20
2022-09-23T11:04:03.068Z,62.95
2022-09-23T11:05:13.751Z,62.94
2022-09-23T11:06:45.347Z,63.06
2022-09-23T11:08:09.431Z,63.23
2022-09-23T11:09:44.747Z,63.27
2022-09-23T11:10:57.621Z,63.11
2022-09-23T11:12:23.425Z,63.00
2022-09-23T11:13:54.875Z,63.01
2022-09-23T11:15:06.334Z,62.94
2022-09-23T11:16:27.521Z,63.05
2022-09-23T11:17:53.084Z,63.86
2022-09-23T11:19:24.675Z,64.16
2022-09-23T11:20:56.798Z,64.17
2022-09-23T11:22:23.277Z,64.50
2022-09-23T11:23:50.068Z,64.80
2022-09-23T11:25:48.851Z,65.16
2022-09-23T11:27:14.234Z,65.28
2022-09-23T11:28:35.763Z,65.69
2022-09-23T11:29:50.207Z,66.32
2022-09-23T11:31:13.841Z,66.51
2022-09-23T11:32:44.020Z,66.32
2022-09-23T11:34:17.753Z,65.79
2022-09-23T11:36:10.331Z,65.53
2022-09-23T11:37:22.729Z,65.49
2022-09-23T11:38:42.355Z,65.46
2022-09-23T11:39:59.470Z,65.65
2022-09-23T11:41:30.546Z,65.58
2022-09-23T11:42:42.131Z,65.58
2022-09-23T11:43:53.744Z,65.71
2022-09-23T11:45:09.696Z,65.60
2022-09-23T11:46:37.608Z,65.38
2022-09-23T11:47:54.293Z,65.32
2022-09-23T11:49:18.495Z,65.14
2022-09-23T11:50:46.804Z,64.92
2022-09-23T11:52:11.297Z,64.84
2022-09-23T11:53:47.960Z,64.69
2022-09-23T11:55:27.764Z,64.51
2022-09-23T11:56:42.394Z,64.71
2022-09-23T11:58:02.869Z,65.06
2022-09-23T11:59:40.013Z,65.61
2022-09-23T12:01:00.508Z,65.73
2022-09-23T12:02:30.305Z,65.83
2022-09-23T12:04:17.620Z,65.83
2022-09-23T12:05:34.614Z,66.16
2022-09-23T12:06:50.361Z,66.44
2022-09-23T12:08:07.831Z,66.17
2022-09-23T12:09:58.529Z,66.22
2022-09-23T12:11:27.681Z,66.11
2022-09-23T12:13:02.901Z,65.79
2022-09-23T12:14:13.370Z,65.52
2022-09-23T12:15:47.189Z,65.34
2022-09-23T12:17:35.812Z,65.35
2022-09-23T12:18:50.827Z,65.29
2022-09-23T12:20:34.793Z,65.10
2022-09-23T12:22:34.446Z,64.76
2022-09-23T12:24:19.194Z,64.80
2022-09-23T12:25:48.437Z,64.97
2022-09-23T12:26:58.418Z,65.17
2022-09-23T12:28:08.314Z,65.44
2022-09-23T12:29:15.971Z,65.29
2022-09-23T12:30:28.575Z,64.95
2022-09-23T12:31:41.121Z,64.54
2022-09-23T12:32:50.891Z,64.49
2022-09-23T12:33:58.600Z,64.55
2022-09-23T12:35:06.048Z,64.35
2022-09-23T12:36:13.767Z,64.21
2022-09-23T12:37:35.188Z,64.39
2022-09-23T12:39:16.726Z,64.34
2022-09-23T12:40:33.162Z,64.18
2022-09-23T12:41:44.015Z,63.65
2022-09-23T12:42:52.456Z,63.23
2022-09-23T12:44:16.399Z,63.15
2022-09-23T12:45:36.403Z,63.64
2022-09-23T12:46:47.416Z,64.01
2022-09-23T12:47:54.863Z,64.30
2022-09-23T12:49:03.124Z,64.76
2022-09-23T12:50:47.052Z,64.91
2022-09-23T12:52:13.053Z,65.16
2022-09-23T12:53:38.842Z,65.25
2022-09-23T12:54:47.280Z,65.42
2022-09-23T12:55:55.738Z,65.25
2022-09-23T12:57:03.272Z,65.17
2022-09-23T12:58:45.656Z,65.14
2022-09-23T12:59:58.592Z,65.44
2022-09-23T13:01:10.247Z,65.46
2022-09-23T13:02:29.716Z,65.27
2022-09-23T13:03:56.021Z,65.20
2022-09-23T13:05:34.211Z,65.44
2022-09-23T13:06:50.405Z,65.73
2022-09-23T13:08:02.412Z,65.75
2022-09-23T13:09:26.440Z,65.71
2022-09-23T13:10:49.650Z,65.48
2022-09-23T13:12:01.412Z,65.32
2022-09-23T13:13:08.843Z,65.34
2022-09-23T13:14:21.951Z,65.25
2022-09-23T13:15:35.261Z,65.05
2022-09-23T13:16:47.182Z,64.93
2022-09-23T13:17:54.856Z,64.80
2022-09-23T13:19:05.820Z,64.68
2022-09-23T13:20:23.314Z,64.51
2022-09-23T13:21:47.334Z,64.23
2022-09-23T13:23:02.068Z,64.05
2022-09-23T13:24:16.659Z,63.97
2022-09-23T13:25:30.252Z,63.84
2022-09-23T13:26:38.757Z,64.04
2022-09-23T13:27:47.564Z,64.25
2022-09-23T13:28:58.985Z,64.11
2022-09-23T13:30:09.590Z,64.51
2022-09-23T13:31:18.448Z,64.89
2022-09-23T13:32:35.228Z,64.86
2022-09-23T13:34:02.092Z,64.83
2022-09-23T13:35:17.413Z,64.60
2022-09-23T13:36:25.393Z,64.28
2022-09-23T13:37:47.648Z,64.31
2022-09-23T13:38:55.384Z,64.20
2022-09-23T13:40:25.938Z,64.08
2022-09-23T13:41:34.750Z,64.12
2022-09-23T13:42:42.405Z,64.01
2022-09-23T13:44:00.221Z,63.88
2022-09-23T13:45:08.007Z,63.76
2022-09-23T13:46:25.519Z,63.66
2022-09-23T13:47:33.493Z,63.59
2022-09-23T13:48:41.067Z,63.72
2022-09-23T13:49:49.619Z,63.86
2022-09-23T13:50:57.601Z,63.78
2022-09-23T13:52:05.204Z,63.77
2022-09-23T13:53:13.626Z,64.10
2022-09-23T13:54:32.429Z,64.29
2022-09-23T13:55:40.929Z,64.41
2022-09-23T13:56:50.737Z,64.21
2022-09-23T13:58:06.798Z,63.96
2022-09-23T13:59:40.525Z,64.06
2022-09-23T14:00:49.933Z,63.63
2022-09-23T14:02:14.667Z,63.01
2022-09-23T14:03:33.780Z,62.45
2022-09-23T14:04:46.187Z,61.58
2022-09-23T14:05:54.179Z,61.11
2022-09-23T14:07:01.783Z,60.62
2022-09-23T14:08:10.068Z,60.27
2022-09-23T14:09:18.358Z,59.68
2022-09-23T14:10:28.604Z,58.92
2022-09-23T14:11:36.711Z,58.19
2022-09-23T14:12:48.080Z,58.02
2022-09-23T14:13:59.295Z,57.94
2022-09-23T14:15:10.387Z,58.20
2022-09-23T14:16:17.801Z,58.40
2022-09-23T14:17:25.405Z,58.11
2022-09-23T14:18:38.169Z,58.00
2022-09-23T14:19:45.377Z,57.49
2022-09-23T14:20:52.554Z,56.34
2022-09-23T14:22:00.829Z,55.23
2022-09-23T14:23:09.304Z,53.77
2022-09-23T14:24:23.109Z,52.52
2022-09-23T14:25:30.422Z,51.86
2022-09-23T14:26:37.688Z,51.45
2022-09-23T14:27:45.014Z,50.62
2022-09-23T14:28:52.172Z,50.33
2022-09-23T14:29:59.275Z,49.86
2022-09-23T14:31:06.659Z,49.33
2022-09-23T14:32:15.577Z,48.88
2022-09-23T14:33:49.060Z,47.25
2022-09-23T14:35:02.389Z,47.41
2022-09-23T14:36:36.667Z,46.78
2022-09-23T14:38:03.072Z,45.77
2022-09-23T14:39:12.257Z,45.08
2022-09-23T14:40:29.856Z,43.84
2022-09-23T14:41:41.566Z,43.35
2022-09-23T14:42:58.800Z,43.54
2022-09-23T14:44:06.188Z,43.48
2022-09-23T14:45:19.101Z,42.58
2022-09-23T14:46:29.787Z,41.48
2022-09-23T14:47:37.578Z,41.13
2022-09-23T14:48:44.846Z,41.40
2022-09-23T14:50:12.158Z,41.42
2022-09-23T14:51:19.356Z,41.39
2022-09-23T14:52:26.703Z,40.95
2022-09-23T14:53:44.753Z,40.45
2022-09-23T14:54:52.722Z,39.79
2022-09-23T14:56:23.276Z,38.98
2022-09-23T14:57:33.774Z,38.62
2022-09-23T14:58:52.617Z,37.66
2022-09-23T15:00:11.083Z,37.67
2022-09-23T15:01:28.916Z,36.99
2022-09-23T15:02:37.829Z,36.80
2022-09-23T15:03:51.479Z,37.10
2022-09-23T15:05:18.312Z,37.05
2022-09-23T15:06:25.583Z,36.82
2022-09-23T15:07:32.757Z,36.72
2022-09-23T15:08:40.683Z,35.94
2022-09-23T15:09:47.926Z,35.34
2022-09-23T15:10:55.325Z,34.02
2022-09-23T15:12:03.980Z,33.99
2022-09-23T15:13:14.841Z,33.87
2022-09-23T15:14:37.324Z,32.12
2022-09-23T15:15:46.751Z,33.41
2022-09-23T15:16:53.953Z,33.38
2022-09-23T15:18:15.370Z,33.20
2022-09-23T15:19:22.675Z,33.08
2022-09-23T15:20:29.871Z,32.52
2022-09-23T15:21:42.302Z,32.59
2022-09-23T15:22:55.019Z,32.93
2022-09-23T15:24:02.221Z,32.49
2022-09-23T15:25:31.570Z,32.53
2022-09-23T15:26:48.473Z,32.59
2022-09-23T15:27:59.158Z,32.03
2022-09-23T15:29:08.948Z,31.83
2022-09-23T15:30:18.238Z,31.81
2022-09-23T15:31:27.675Z,31.42
2022-09-23T15:32:35.023Z,31.33
2022-09-23T15:33:42.088Z,30.94
2022-09-23T15:34:51.604Z,30.71
2022-09-23T15:35:58.895Z,30.50
2022-09-23T15:37:06.490Z,29.99
2022-09-23T15:38:13.453Z,29.90
2022-09-23T15:39:20.439Z,30.01
2022-09-23T15:40:32.064Z,29.69
2022-09-23T15:41:39.372Z,29.73
2022-09-23T15:42:54.118Z,30.05
2022-09-23T15:44:14.986Z,30.39
2022-09-23T15:45:33.189Z,30.55
2022-09-23T15:46:41.724Z,30.74
2022-09-23T15:47:50.821Z,30.50
2022-09-23T15:49:11.050Z,29.86
2022-09-23T15:50:18.752Z,29.77
2022-09-23T15:51:26.316Z,29.43
2022-09-23T15:52:38.275Z,28.86
2022-09-23T15:53:45.453Z,29.02
2022-09-23T15:54:53.328Z,29.06
2022-09-23T15:56:00.740Z,29.07
2022-09-23T15:57:08.053Z,29.03
2022-09-23T15:58:15.172Z,28.73